Latest Coastal Weather Observations for Hervey Bay

IDQ60701

Issued at 10:15 pm EST Sunday 21 September 2014 (issued every 10 minutes, with the page automatically refreshed every 10 minutes)

About coastal observations | Map of coastal stations | Coastal observations for QLD | Marine services | Other Formats
Station Details ID: 040405 Name: HERVEY BAY AIRPORT Lat: -25.32 Lon: 152.88 Height: 12.98 m
Data from the previous 72 hours. | See also: Recent months at Hervey Bay
Date/Time
EST
Temp

°C
Wind Pressure Rain
since 9am
mm
Weather Cloud Vis
km
Sea
Height
m
Swell
Dir
 
Speed
knots
Gust
knots
hPa Trend Height
m
Period
s
Dir
21/10:00pm 19.2 SE 9 15 1025.2 - 0.0 - Partly cloudy 10 - - - -
21/09:30pm 19.4 SE 11 16 1025.0 - 0.0 - Partly cloudy 10 - - - -
21/09:00pm 19.6 SE 8 13 1024.7 - 0.0 - Cloudy 10 - - - -
21/08:30pm 19.7 SE 9 13 1024.8 - 0.0 - Partly cloudy 10 - - - -
21/08:00pm 19.9 SE 8 12 1024.7 - 0.0 - Partly cloudy 10 - - - -
21/07:30pm 19.8 SE 8 13 1024.7 - 0.0 - Cloudy 10 - - - -
21/07:00pm 19.8 SE 9 12 1024.3 - 0.0 - Cloudy 10 - - - -
21/06:30pm 19.8 SE 9 17 1023.8 - 0.0 - Partly cloudy 10 - - - -
21/06:00pm 19.9 SE 10 15 1023.3 - 0.0 - Cloudy 10 - - - -
21/05:30pm 20.1 ESE 10 15 1023.2 - 0.0 - Cloudy 10 - - - -
21/05:00pm 20.4 ESE 12 19 1022.9 - 0.0 - Partly cloudy 10 - - - -
21/04:30pm 20.8 ESE 12 18 1022.9 - 0.0 - Cloudy 10 - - - -
21/04:00pm 20.6 ESE 11 18 1022.6 - 0.0 - Cloudy 10 - - - -
21/03:30pm 20.9 ESE 12 17 1022.5 - 0.0 - Partly cloudy 10 - - - -
21/03:00pm 21.2 ESE 11 19 1022.2 - 0.0 - Cloudy 10 - - - -
21/02:30pm 21.3 ESE 12 19 1022.3 - 0.0 - Cloudy 10 - - - -
21/02:00pm 21.9 ESE 12 18 1022.4 - 0.0 - Partly cloudy 10 - - - -
21/01:30pm 22.3 ESE 15 19 1022.7 - 0.0 - Partly cloudy 10 - - - -
21/01:00pm 23.4 ESE 12 18 1023.0 - 0.0 - Partly cloudy 10 - - - -
21/12:30pm 22.6 ESE 14 19 1023.4 - 0.0 - Partly cloudy 10 - - - -
21/12:00pm 22.9 ESE 13 19 1023.6 - 0.0 - Mostly cloudy 10 - - - -
21/11:30am 22.0 SE 13 21 1023.9 - 0.0 - Partly cloudy 10 - - - -
21/11:00am 21.6 ESE 13 21 1024.0 - 0.0 - Partly cloudy 10 - - - -
21/10:30am 22.3 ESE 16 22 1024.2 - 0.0 - Partly cloudy 10 - - - -
21/10:00am 21.5 ESE 14 20 1024.5 - 0.0 - Partly cloudy 10 - - - -
21/09:30am 21.4 ESE 11 18 1024.8 - 0.0 - Partly cloudy 10 - - - -
21/09:00am 20.6 ESE 11 17 1024.8 - 2.8 - Mostly cloudy 10 - - - -
21/08:30am 20.2 SE 7 10 1024.6 - 2.8 - Cloudy 10 - - - -
21/08:00am 19.3 SSE 6 9 1024.4 - 2.8 - Partly cloudy 10 - - - -
21/07:30am 18.8 S 6 11 1024.1 - 2.8 - Partly cloudy 10 - - - -
21/07:00am 17.4 S 7 11 1023.7 - 2.8 - Partly cloudy 10 - - - -
21/06:30am 16.6 SSW 5 8 1023.3 - 2.8 - Cloudy 10 - - - -
21/06:00am 16.5 SSW 6 8 1023.2 - 2.8 - Mostly cloudy 10 - - - -
21/05:30am 16.5 S 4 5 1023.1 - 2.8 - Partly cloudy 10 - - - -
21/05:00am 16.7 SSW 6 8 1022.8 - 2.8 - Partly cloudy 10 - - - -
21/04:30am 17.1 ESE 7 11 1022.6 - 2.8 - Partly cloudy 10 - - - -
21/04:00am 16.9 SE 6 9 1022.4 - 2.8 - Partly cloudy 10 - - - -
21/03:30am 16.7 SE 7 9 1022.2 - 2.8 - Partly cloudy 10 - - - -
21/03:00am 16.7 SSE 8 11 1022.2 - 2.8 - Cloudy 10 - - - -
21/02:30am 17.3 ESE 5 7 1022.2 - 2.8 - Partly cloudy 10 - - - -
21/02:00am 17.2 E 7 10 1022.5 - 2.8 - Cloudy 10 - - - -
21/01:30am 17.0 E 12 15 1022.5 - 2.4 - Cloudy 9 - - - -
21/01:23am 17.0 E 11 15 1022.6 - 2.0 - Partly cloudy 9 - - - -
21/01:09am 16.8 SE 9 13 1022.8 - 1.2 - Partly cloudy 5 - - - -
21/01:00am 17.4 SE 8 12 1022.8 - 0.0 - Partly cloudy 10 - - - -
21/12:30am 18.5 SSE 6 9 1022.8 - 0.0 - Partly cloudy 10 - - - -
21/12:00am 18.6 ESE 7 10 1022.6 - 0.0 - Partly cloudy 10 - - - -
 
Date/Time
EST
Temp

°C
Wind Pressure Rain
since 9am
mm
Weather Cloud Vis
km
Sea
Height
m
Swell
Dir
 
Speed
knots
Gust
knots
hPa Trend Height
m
Period
s
Dir
20/11:30pm 19.2 SE 8 13 1022.7 - 0.0 - Partly cloudy 10 - - - -
20/11:00pm 19.2 ESE 6 9 1022.6 - 0.0 - Partly cloudy 10 - - - -
20/10:30pm 18.9 ESE 9 15 1022.7 - 0.0 - Partly cloudy 10 - - - -
20/10:00pm 18.9 E 9 13 1022.7 - 0.0 - Partly cloudy 10 - - - -
20/09:30pm 19.1 SE 9 14 1022.4 - 0.0 - Partly cloudy 10 - - - -
20/09:00pm 19.9 SSE 6 9 1022.3 - 0.0 - Cloudy 10 - - - -
20/08:30pm 20.4 SE 5 8 1021.7 - 0.0 - Partly cloudy 10 - - - -
20/08:00pm 20.9 E 5 6 1021.4 - 0.0 - Partly cloudy 10 - - - -
20/07:30pm 20.7 E 4 6 1021.1 - 0.0 - Partly cloudy 10 - - - -
20/07:00pm 21.1 E 6 8 1020.3 - 0.0 - Partly cloudy 10 - - - -
20/06:30pm 21.2 NE 4 7 1019.7 - 0.0 - Partly cloudy 10 - - - -
20/06:00pm 20.7 N 5 8 1019.1 - 0.0 - Partly cloudy 10 - - - -
20/05:30pm 21.3 N 9 11 1018.3 - 0.0 - Partly cloudy 10 - - - -
20/05:00pm 22.0 NNE 9 11 1018.0 - 0.0 - Partly cloudy 10 - - - -
20/04:30pm 22.9 N 10 14 1017.7 - 0.0 - - 10 - - - -
20/04:00pm 22.8 N 10 14 1017.4 - 0.0 - Partly cloudy 10 - - - -
20/03:30pm 23.6 NNE 10 14 1017.4 - 0.0 - Partly cloudy 10 - - - -
20/03:00pm 23.2 NNE 11 15 1017.4 - 0.0 - Partly cloudy 10 - - - -
20/02:30pm 24.5 N 11 14 1017.4 - 0.0 - - 10 - - - -
20/02:00pm 24.0 N 10 14 1017.7 - 0.0 - - 10 - - - -
20/01:30pm 24.2 N 12 15 1018.1 - 0.0 - - 10 - - - -
20/01:00pm 24.7 N 8 13 1018.4 - 0.0 - - 10 - - - -
20/12:30pm 23.9 N 10 14 1018.8 - 0.0 - - 10 - - - -
20/12:00pm 24.3 N 9 13 1019.2 - 0.0 - - 10 - - - -
20/11:30am 24.1 N 9 13 1019.7 - 0.0 - - 10 - - - -
20/11:00am 23.9 N 9 14 1020.1 - 0.0 - - 10 - - - -
20/10:30am 23.5 N 8 14 1020.4 - 0.0 - - 10 - - - -
20/10:00am 23.7 N 9 13 1020.7 - 0.0 - Partly cloudy 10 - - - -
20/09:30am 22.7 NNW 7 10 1021.0 - 0.0 - Partly cloudy 10 - - - -
20/09:00am 22.0 WNW 3 5 1021.0 - 0.0 - Mostly cloudy 10 - - - -
20/08:30am 20.8 CALM 0 0 1020.9 - 0.0 - Partly cloudy 10 - - - -
20/08:00am 19.9 CALM 0 0 1020.7 - 0.0 - Partly cloudy 10 - - - -
20/07:30am 17.9 SSW 3 4 1020.3 - 0.0 - Partly cloudy 10 - - - -
20/07:00am 16.3 CALM 0 0 1019.9 - 0.0 - Partly cloudy 10 - - - -
20/06:30am 14.3 CALM 0 0 1019.6 - 0.0 - Partly cloudy 10 - - - -
20/06:00am 13.5 SSW 1 3 1019.3 - 0.0 - Mostly clear 10 - - - -
20/05:30am 13.3 SSW 1 4 1019.0 - 0.0 - Cloudy 10 - - - -
20/05:00am 12.9 SSW 5 6 1018.6 - 0.0 - Partly cloudy 10 - - - -
20/04:30am 11.3 CALM 0 0 1018.2 - 0.0 - Partly cloudy 10 - - - -
20/04:00am 11.4 CALM 0 0 1018.0 - 0.0 - - 10 - - - -
20/03:30am 11.6 CALM 0 0 1017.8 - 0.0 - - 10 - - - -
20/03:00am 11.7 CALM 0 0 1017.8 - 0.0 - - 10 - - - -
20/02:30am 11.8 CALM 0 0 1017.9 - 0.0 - - 10 - - - -
20/02:00am 12.0 CALM 0 0 1018.1 - 0.0 - - 10 - - - -
20/01:30am 12.3 CALM 0 0 1018.4 - 0.0 - - 10 - - - -
20/01:00am 12.5 CALM 0 0 1018.7 - 0.0 - - 10 - - - -
20/12:30am 13.0 CALM 0 0 1019.1 - 0.0 - - 10 - - - -
20/12:00am 13.5 CALM 0 0 1019.4 - 0.0 - - 10 - - - -
 
Date/Time
EST
Temp

°C
Wind Pressure Rain
since 9am
mm
Weather Cloud Vis
km
Sea
Height
m
Swell
Dir
 
Speed
knots
Gust
knots
hPa Trend Height
m
Period
s
Dir
19/11:30pm 13.5 S 3 4 1019.5 - 0.0 - - 10 - - - -
19/11:00pm 14.1 SSW 1 3 1019.4 - 0.0 - - 10 - - - -
19/10:30pm 14.5 CALM 0 1 1019.4 - 0.0 - - 10 - - - -
19/10:00pm 15.1 E 2 5 1019.3 - 0.0 - - 10 - - - -
19/09:30pm 16.7 E 3 4 1019.4 - 0.0 - - 10 - - - -
19/09:00pm 19.4 NNE 5 7 1019.3 - 0.0 - - 10 - - - -
19/08:30pm 19.9 N 7 11 1019.2 - 0.0 - - 10 - - - -
19/08:00pm 20.2 NNE 8 11 1019.1 - 0.0 - - 10 - - - -
19/07:30pm 20.0 NNE 7 10 1018.6 - 0.0 - - 10 - - - -
19/07:00pm 20.2 NNE 8 10 1018.3 - 0.0 - - 10 - - - -
19/06:30pm 20.6 NNE 9 12 1017.8 - 0.0 - - 10 - - - -
19/06:00pm 20.9 NNE 9 12 1017.4 - 0.0 - - 10 - - - -
19/05:30pm 21.1 N 8 12 1017.2 - 0.0 - - 10 - - - -
19/05:00pm 21.7 N 10 14 1016.8 - 0.0 - - 10 - - - -
19/04:30pm 22.2 N 10 14 1016.6 - 0.0 - - 10 - - - -
19/04:00pm 22.7 N 10 13 1016.3 - 0.0 - - 10 - - - -
19/03:30pm 23.6 N 10 14 1016.3 - 0.0 - - 10 - - - -
19/03:00pm 23.5 N 11 15 1016.4 - 0.0 - - 10 - - - -
19/02:30pm 24.0 N 11 16 1016.8 - 0.0 - - 10 - - - -
19/02:00pm 24.5 N 10 15 1017.0 - 0.0 - - 10 - - - -
19/01:30pm 24.2 N 10 13 1017.5 - 0.0 - - 10 - - - -
19/01:00pm 24.2 N 11 15 1018.0 - 0.0 - - 10 - - - -
19/12:30pm 24.2 NNW 10 16 1018.6 - 0.0 - - 10 - - - -
19/12:00pm 24.0 NNW 10 15 1019.2 - 0.0 - - 10 - - - -
19/11:30am 23.5 N 8 13 1019.9 - 0.0 - - 10 - - - -
19/11:00am 23.2 N 8 15 1020.2 - 0.0 - - 10 - - - -
19/10:30am 23.5 N 8 11 1020.6 - 0.0 - - 10 - - - -
19/10:00am 23.3 E 8 11 1021.0 - 0.0 - - 10 - - - -
19/09:30am 22.6 NE 6 8 1021.3 - 0.0 - - 10 - - - -
19/09:00am 22.3 ENE 2 6 1021.4 - 0.0 - - 10 - - - -
19/08:30am 20.0 SSE 3 5 1021.5 - 0.0 - - 10 - - - -
19/08:00am 17.8 SSW 4 5 1021.4 - 0.0 - - 10 - - - -
19/07:30am 15.9 SSW 4 5 1021.2 - 0.0 - - 10 - - - -
19/07:00am 14.0 WSW 4 5 1020.9 - 0.0 - - 10 - - - -
19/06:30am 11.7 WSW 3 4 1020.7 - 0.0 - - 10 - - - -
19/06:00am 9.8 SW 3 4 1020.3 - 0.0 - - 10 - - - -
19/05:30am 9.2 CALM 0 0 1020.1 - 0.0 - - 10 - - - -
19/05:00am 9.1 SSW 2 4 1019.8 - 0.0 - - 10 - - - -
19/04:30am 9.5 CALM 0 0 1019.4 - 0.0 - - 10 - - - -
19/04:00am 10.2 CALM 0 3 1019.2 - 0.0 - - 10 - - - -
19/03:30am 10.1 SSW 3 5 1019.1 - 0.0 - - 10 - - - -
19/03:00am 9.5 SSW 4 5 1019.1 - 0.0 - - 10 - - - -
19/02:30am 9.6 SSW 5 6 1019.0 - 0.0 - - 10 - - - -
19/02:00am 9.7 SSW 1 3 1019.2 - 0.0 - - 10 - - - -
19/01:30am 9.8 CALM 0 0 1019.3 - 0.0 - - 10 - - - -
19/01:00am 9.9 CALM 0 0 1019.5 - 0.0 - - 10 - - - -
19/12:30am 10.1 CALM 0 0 1019.6 - 0.0 - - 10 - - - -
19/12:00am 10.0 SSW 3 4 1019.6 - 0.0 - - 10 - - - -
 
Date/Time
EST
Temp

°C
Wind Pressure Rain
since 9am
mm
Weather Cloud Vis
km
Sea
Height
m
Swell
Dir
 
Speed
knots
Gust
knots
hPa Trend Height
m
Period
s
Dir
18/11:30pm 10.6 SSW 3 3 1019.6 - 0.0 - - 10 - - - -
18/11:00pm 10.6 CALM 0 0 1019.6 - 0.0 - - 10 - - - -
18/10:30pm 10.9 CALM 0 0 1019.5 - 0.0 - - 10 - - - -

Other Formats:

Comma delimited format used in spreadsheet applications
http://www.bom.gov.au/fwo/IDQ60701/IDQ60701.95565.axf

JavaScript Object Notation format (JSON) in row-major order
http://www.bom.gov.au/fwo/IDQ60701/IDQ60701.95565.json